Hay River Airport
CYHY : now visible

Airfield :











YOU CAN JOIN US ON...

 
LOGIN :

Register | Disclaimer

   EN    FR    IT 

 









Legend :    VFR   Marginal VFR   IFR   Intensive IFR   Very Intensive IFR
Visi :
Ceiling :
>= 8 km
>= 3000ft
5 to 8 km
1000 to 3000 ft
1500m to 5 km
500 to 1000 ft
800 to 1500m
200 to 500 ft
< 800m
< 200 ft
Symbols :   Thunderstorms  Fog  Heavy snow  Heavy precipitations  Wind > 20 kt






- Airport Elevation : 543 ft
- IATA code : YHY


CYHY - Hay River

CURRENT METAR :
  • 220500Z 31003KT 15SM FEW018 SCT200 00/M01 A2932 RMK SC2CI2 SLP939

EXPIRED METARs :
  • 220400Z 21005KT 15SM FEW018 SCT200 01/M01 A2930 RMK SC2CI2 SLP934
  • 220300Z 22006KT 15SM SCT018 BKN200 02/M00 A2930 RMK SC3CI3 SLP933

TAF TAF CYHY
Valid from the 22 at 00:00 until the 22 at 12:00 UTC


212338Z 2200/2212 22010KT P6SM SCT100 BKN180
PROB30 2208/2212 1SM BR BKN003 RMK NXT FCST BY 220600Z



MET'MAP, your aeronautical weather chart ! - Copyright ORBIFLY December 2007 - Disclaimer

ORBIFLY MET'MAP TEAM :

Programming & Development : Alexandra Zaïnal
Concept & Development : Baudouin d'Aumeries
Co-Development & Prog : Marc-Olivier Méhu
Technical & hardware support : Manuel Goepfert

Contact : metmap@orbifly.com




SOURCES & CREDITS :

   NOAA       Earth
Advisory